createdAt,value
2019-01-19T00:01:29.018Z,-1.50
2019-01-19T00:04:34.257Z,-1.60
2019-01-19T00:07:29.413Z,-1.70
2019-01-19T00:10:15.226Z,-1.70
2019-01-19T00:13:07.618Z,-1.80
2019-01-19T00:16:01.746Z,-1.80
2019-01-19T00:19:11.249Z,-1.90
2019-01-19T00:22:02.518Z,-2.00
2019-01-19T00:24:49.130Z,-2.20
2019-01-19T00:27:58.642Z,-2.30
2019-01-19T00:30:51.163Z,-2.30
2019-01-19T00:34:12.013Z,-2.20
2019-01-19T00:37:08.817Z,-2.20
2019-01-19T00:39:58.293Z,-2.20
2019-01-19T00:42:59.399Z,-2.20
2019-01-19T00:46:07.002Z,-2.20
2019-01-19T00:48:42.218Z,-2.20
2019-01-19T00:51:37.747Z,-2.30
2019-01-19T00:54:55.599Z,-2.30
2019-01-19T00:58:08.654Z,-2.40
2019-01-19T01:00:44.684Z,-2.40
2019-01-19T01:03:36.888Z,-2.30
2019-01-19T01:06:23.115Z,-2.40
2019-01-19T01:09:10.710Z,-2.40
2019-01-19T01:12:16.169Z,-2.50
2019-01-19T01:15:13.240Z,-2.50
2019-01-19T01:17:54.069Z,-2.50
2019-01-19T01:20:55.009Z,-2.60
2019-01-19T01:23:29.998Z,-2.70
2019-01-19T01:26:23.818Z,-2.70
2019-01-19T01:29:24.621Z,-2.70
2019-01-19T01:31:58.044Z,-2.60
2019-01-19T01:34:44.501Z,-2.60
2019-01-19T01:37:37.294Z,-2.70
2019-01-19T01:40:45.125Z,-2.60
2019-01-19T01:44:01.031Z,-2.70
2019-01-19T01:47:11.845Z,-2.50
2019-01-19T01:50:00.037Z,-2.60
2019-01-19T01:53:03.696Z,-2.70
2019-01-19T01:55:37.026Z,-2.70
2019-01-19T01:58:33.278Z,-2.70
2019-01-19T02:01:21.453Z,-2.70
2019-01-19T02:04:31.645Z,-2.70
2019-01-19T02:07:20.845Z,-2.60
2019-01-19T02:10:43.586Z,-2.50
2019-01-19T02:13:21.509Z,-2.50
2019-01-19T02:16:27.573Z,-2.50
2019-01-19T02:19:29.987Z,-2.50
2019-01-19T02:22:12.261Z,-2.60
2019-01-19T02:25:24.096Z,-2.60
2019-01-19T02:28:20.863Z,-2.50
2019-01-19T02:31:44.419Z,-2.50
2019-01-19T02:34:48.364Z,-2.50
2019-01-19T02:38:05.011Z,-2.60
2019-01-19T02:41:07.234Z,-2.60
2019-01-19T02:44:16.445Z,-2.60
2019-01-19T02:47:49.607Z,-2.70
2019-01-19T02:50:31.841Z,-2.70
2019-01-19T02:53:43.869Z,-2.70
2019-01-19T02:56:24.898Z,-2.70
2019-01-19T02:59:23.898Z,-2.70
2019-01-19T03:02:44.856Z,-2.70
2019-01-19T03:05:34.485Z,-2.60
2019-01-19T03:08:48.843Z,-2.50
2019-01-19T03:12:03.676Z,-2.50
2019-01-19T03:15:02.707Z,-2.60
2019-01-19T03:18:05.045Z,-2.60
2019-01-19T03:20:55.135Z,-2.70
2019-01-19T03:24:06.756Z,-2.70
2019-01-19T03:26:52.078Z,-2.80
2019-01-19T03:29:43.447Z,-2.80
2019-01-19T03:32:20.880Z,-2.70
2019-01-19T03:35:10.795Z,-2.60
2019-01-19T03:38:07.775Z,-2.60
2019-01-19T03:40:44.135Z,-2.70
2019-01-19T03:43:50.601Z,-2.70
2019-01-19T03:46:59.310Z,-2.60
2019-01-19T03:49:56.234Z,-2.50
2019-01-19T03:52:55.872Z,-2.50
2019-01-19T03:55:52.648Z,-2.60
2019-01-19T03:58:50.008Z,-2.60
2019-01-19T04:01:44.789Z,-2.60
2019-01-19T04:04:41.585Z,-2.70
2019-01-19T04:07:36.737Z,-2.60
2019-01-19T04:10:12.959Z,-2.80
2019-01-19T04:13:27.242Z,-2.70
2019-01-19T04:16:14.083Z,-2.60
2019-01-19T04:19:09.506Z,-2.60
2019-01-19T04:21:52.606Z,-2.60
2019-01-19T04:24:30.741Z,-2.60
2019-01-19T04:26:58.005Z,-2.60
2019-01-19T04:29:25.038Z,-2.60
2019-01-19T04:31:51.975Z,-2.60
2019-01-19T04:34:19.085Z,-2.70
2019-01-19T04:36:46.318Z,-2.70
2019-01-19T04:39:13.395Z,-2.60
2019-01-19T04:41:40.367Z,-2.60
2019-01-19T04:44:07.405Z,-2.40
2019-01-19T04:46:34.343Z,-2.30
2019-01-19T04:49:01.447Z,-2.30
2019-01-19T04:51:28.356Z,-2.30
2019-01-19T04:53:55.307Z,-2.30
2019-01-19T04:56:22.225Z,-2.20
2019-01-19T04:58:49.162Z,-2.10
2019-01-19T05:01:16.228Z,-2.20
2019-01-19T05:03:43.140Z,-2.20
2019-01-19T05:06:12.443Z,-2.20
2019-01-19T05:08:39.032Z,-2.20
2019-01-19T05:11:05.948Z,-2.20
2019-01-19T05:13:32.876Z,-2.20
2019-01-19T05:15:59.835Z,-2.20
2019-01-19T05:18:27.053Z,-2.20
2019-01-19T05:20:54.154Z,-2.20
2019-01-19T05:23:21.219Z,-2.20
2019-01-19T05:25:48.131Z,-2.20
2019-01-19T05:28:14.946Z,-2.20
2019-01-19T05:30:41.794Z,-2.30
2019-01-19T05:33:08.755Z,-2.30
2019-01-19T05:35:35.771Z,-2.20
2019-01-19T05:38:02.842Z,-2.30
2019-01-19T05:40:29.746Z,-2.30
2019-01-19T05:42:56.657Z,-2.30
2019-01-19T05:45:23.662Z,-2.20
2019-01-19T05:47:50.470Z,-2.10
2019-01-19T05:50:19.638Z,-2.10
2019-01-19T05:52:46.581Z,-2.00
2019-01-19T05:55:13.597Z,-2.10
2019-01-19T05:57:40.513Z,-2.10
2019-01-19T06:00:11.577Z,-2.20
2019-01-19T06:02:38.496Z,-2.20
2019-01-19T06:05:05.566Z,-2.10
2019-01-19T06:07:32.409Z,-2.00
2019-01-19T06:09:59.229Z,-2.00
2019-01-19T06:12:26.055Z,-2.00
2019-01-19T06:14:53.258Z,-2.00
2019-01-19T06:17:20.153Z,-2.00
2019-01-19T06:19:48.911Z,-2.00
2019-01-19T06:22:16.166Z,-2.00
2019-01-19T06:24:43.000Z,-2.00
2019-01-19T06:27:09.937Z,-2.10
2019-01-19T06:29:36.902Z,-2.10
2019-01-19T06:32:03.926Z,-2.10
2019-01-19T06:34:30.965Z,-2.20
2019-01-19T06:36:58.074Z,-2.30
2019-01-19T06:39:24.888Z,-2.30
2019-01-19T06:41:51.695Z,-2.40
2019-01-19T06:44:18.709Z,-2.50
2019-01-19T06:46:45.673Z,-2.50
2019-01-19T06:49:12.585Z,-2.60
2019-01-19T06:51:39.418Z,-2.60
2019-01-19T06:54:06.625Z,-2.60
2019-01-19T06:56:33.439Z,-2.60
2019-01-19T06:59:00.306Z,-2.60
2019-01-19T07:01:27.350Z,-2.50
2019-01-19T07:03:54.469Z,-2.60
2019-01-19T07:06:21.434Z,-2.60
2019-01-19T07:08:48.243Z,-2.50
2019-01-19T07:11:15.274Z,-2.50
2019-01-19T07:13:42.175Z,-2.50
2019-01-19T07:16:09.201Z,-2.50
2019-01-19T07:18:36.022Z,-2.50
2019-01-19T07:21:03.114Z,-2.50
2019-01-19T07:23:30.067Z,-2.40
2019-01-19T07:25:56.986Z,-2.50
2019-01-19T07:28:24.013Z,-2.50
2019-01-19T07:30:51.027Z,-2.50
2019-01-19T07:33:17.839Z,-2.60
2019-01-19T07:35:44.881Z,-2.60
2019-01-19T07:38:11.690Z,-2.60
2019-01-19T07:40:40.737Z,-2.60
2019-01-19T07:43:11.049Z,-2.50
2019-01-19T07:45:38.062Z,-2.40
2019-01-19T07:48:05.685Z,-2.30
2019-01-19T07:50:32.742Z,-2.20
2019-01-19T07:52:59.648Z,-2.20
2019-01-19T07:55:26.546Z,-2.20
2019-01-19T07:57:53.596Z,-2.00
2019-01-19T08:00:23.006Z,-1.90
2019-01-19T08:02:49.978Z,-1.80
2019-01-19T08:05:17.141Z,-1.70
2019-01-19T08:07:44.133Z,-1.70
2019-01-19T08:10:12.246Z,-1.60
2019-01-19T08:12:39.304Z,-1.50
2019-01-19T08:15:08.491Z,-1.30
2019-01-19T08:17:35.486Z,-1.30
2019-01-19T08:20:03.241Z,-1.20
2019-01-19T08:22:30.129Z,-1.10
2019-01-19T08:24:57.030Z,-1.10
2019-01-19T08:27:23.974Z,-1.10
2019-01-19T08:29:50.896Z,-1.00
2019-01-19T08:32:17.854Z,-1.00
2019-01-19T08:34:44.888Z,-0.90
2019-01-19T08:37:11.799Z,-0.90
2019-01-19T08:39:38.892Z,-0.90
2019-01-19T08:42:05.853Z,-0.80
2019-01-19T08:44:32.718Z,-0.80
2019-01-19T08:46:59.509Z,-0.70
2019-01-19T08:49:26.462Z,-0.70
2019-01-19T08:51:53.274Z,-0.70
2019-01-19T08:54:20.101Z,-0.60
2019-01-19T08:56:47.142Z,-0.60
2019-01-19T08:59:14.484Z,-0.50
2019-01-19T09:01:41.322Z,-0.50
2019-01-19T09:04:08.374Z,-0.50
2019-01-19T09:06:35.286Z,-0.40
2019-01-19T09:09:03.740Z,-0.40
2019-01-19T09:11:30.786Z,-0.30
2019-01-19T09:14:00.436Z,-0.30
2019-01-19T09:16:27.456Z,-0.30
2019-01-19T09:18:54.440Z,-0.20
2019-01-19T09:21:21.455Z,-0.30
2019-01-19T09:24:02.640Z,-0.20
2019-01-19T09:26:29.763Z,-0.20
2019-01-19T09:28:56.815Z,-0.10
2019-01-19T09:31:23.664Z,-0.10
2019-01-19T09:33:50.774Z,-0.10
2019-01-19T09:36:17.794Z,-0.10
2019-01-19T09:38:44.862Z,-0.10
2019-01-19T09:41:11.873Z,0.00
2019-01-19T09:43:38.803Z,0.10
2019-01-19T09:46:06.182Z,0.20
2019-01-19T09:48:33.339Z,0.20
2019-01-19T09:51:00.369Z,0.30
2019-01-19T09:53:27.413Z,0.40
2019-01-19T09:55:54.359Z,0.40
2019-01-19T09:58:21.381Z,0.40
2019-01-19T10:00:48.338Z,0.50
2019-01-19T10:03:15.268Z,0.50
2019-01-19T10:05:42.289Z,0.50
2019-01-19T10:08:09.392Z,0.60
2019-01-19T10:10:36.406Z,0.60
2019-01-19T10:13:03.682Z,0.60
2019-01-19T10:15:30.644Z,0.60
2019-01-19T10:17:57.686Z,0.70
2019-01-19T10:20:24.994Z,0.70
2019-01-19T10:22:52.046Z,0.80
2019-01-19T10:25:19.066Z,0.80
2019-01-19T10:27:46.167Z,0.80
2019-01-19T10:30:19.001Z,0.80
2019-01-19T10:32:46.029Z,0.80
2019-01-19T10:35:13.073Z,0.80
2019-01-19T10:37:40.249Z,0.90
2019-01-19T10:40:08.712Z,0.80
2019-01-19T10:42:35.734Z,0.90
2019-01-19T10:45:03.088Z,0.90
2019-01-19T10:47:30.144Z,1.00
2019-01-19T10:49:56.942Z,1.00
2019-01-19T10:52:23.878Z,1.10
2019-01-19T10:54:50.897Z,1.10
2019-01-19T10:57:17.831Z,1.10
2019-01-19T10:59:44.807Z,1.10
2019-01-19T11:02:11.939Z,1.10
2019-01-19T11:04:38.968Z,1.20
2019-01-19T11:07:05.920Z,1.30
2019-01-19T11:09:32.852Z,1.30
2019-01-19T11:11:59.670Z,1.30
2019-01-19T11:14:26.620Z,1.40
2019-01-19T11:16:53.543Z,1.40
2019-01-19T11:19:20.566Z,1.40
2019-01-19T11:21:47.629Z,1.50
2019-01-19T11:24:14.582Z,1.50
2019-01-19T11:26:41.609Z,1.50
2019-01-19T11:29:08.546Z,1.50
2019-01-19T11:31:35.489Z,1.50
2019-01-19T11:34:03.416Z,1.50
2019-01-19T11:36:30.364Z,1.60
2019-01-19T11:38:57.187Z,1.60
2019-01-19T11:41:24.249Z,1.60
2019-01-19T11:43:51.336Z,1.70
2019-01-19T11:46:18.165Z,1.70
2019-01-19T11:48:45.029Z,1.70
2019-01-19T11:51:11.975Z,1.70
2019-01-19T11:53:38.801Z,1.70
2019-01-19T11:56:11.997Z,1.70
2019-01-19T11:58:34.569Z,1.80
2019-01-19T12:01:01.489Z,1.80
2019-01-19T12:03:28.314Z,1.80
2019-01-19T12:05:55.359Z,1.90
2019-01-19T12:08:22.286Z,1.90
2019-01-19T12:10:49.097Z,1.90
2019-01-19T12:13:16.078Z,1.90
2019-01-19T12:15:43.097Z,1.90
2019-01-19T12:18:10.982Z,1.90
2019-01-19T12:20:43.155Z,1.90
2019-01-19T12:23:10.075Z,1.80
2019-01-19T12:25:37.406Z,1.90
2019-01-19T12:28:04.816Z,1.90
2019-01-19T12:30:31.821Z,1.70
2019-01-19T12:32:58.821Z,1.60
2019-01-19T12:35:25.941Z,1.50
2019-01-19T12:37:53.413Z,1.40
2019-01-19T12:40:21.911Z,1.40
2019-01-19T12:42:51.243Z,1.40
2019-01-19T12:45:24.520Z,1.40
2019-01-19T12:47:51.518Z,1.40
2019-01-19T12:50:21.284Z,1.30
2019-01-19T12:52:48.297Z,1.20
2019-01-19T12:55:15.218Z,1.20
2019-01-19T12:57:42.279Z,1.20
2019-01-19T13:00:12.557Z,1.10
2019-01-19T13:02:39.578Z,1.10
2019-01-19T13:05:11.713Z,1.10
2019-01-19T13:07:38.738Z,1.10
2019-01-19T13:10:18.966Z,1.10
2019-01-19T13:12:52.592Z,1.00
2019-01-19T13:15:43.479Z,1.00
2019-01-19T13:18:35.069Z,1.00
2019-01-19T13:21:36.370Z,1.00
2019-01-19T13:24:38.317Z,1.00
2019-01-19T13:27:28.557Z,1.00
2019-01-19T13:30:20.004Z,1.00
2019-01-19T13:33:35.145Z,1.00
2019-01-19T13:36:31.151Z,1.00
2019-01-19T13:39:09.686Z,1.00
2019-01-19T13:42:25.508Z,0.90
2019-01-19T13:45:18.917Z,0.90
2019-01-19T13:48:20.641Z,0.90
2019-01-19T13:51:24.853Z,0.90
2019-01-19T13:54:39.601Z,0.90
2019-01-19T13:57:15.342Z,0.90
2019-01-19T14:00:21.826Z,0.80
2019-01-19T14:03:33.706Z,0.80
2019-01-19T14:07:00.981Z,0.80
2019-01-19T14:10:03.519Z,0.80
2019-01-19T14:13:11.125Z,0.80
2019-01-19T14:15:56.517Z,0.80
2019-01-19T14:19:00.883Z,0.70
2019-01-19T14:22:07.048Z,0.70
2019-01-19T14:25:00.599Z,0.70
2019-01-19T14:27:54.622Z,0.70
2019-01-19T14:30:58.303Z,0.60
2019-01-19T14:34:04.446Z,0.60
2019-01-19T14:37:04.878Z,0.60
2019-01-19T14:39:56.413Z,0.70
2019-01-19T14:42:51.190Z,0.60
2019-01-19T14:45:56.374Z,0.60
2019-01-19T14:48:53.074Z,0.50
2019-01-19T14:51:28.595Z,0.60
2019-01-19T14:54:36.681Z,0.60
2019-01-19T14:57:25.687Z,0.60
2019-01-19T15:00:39.768Z,0.60
2019-01-19T15:03:49.732Z,0.60
2019-01-19T15:06:54.542Z,0.50
2019-01-19T15:10:05.442Z,0.50
2019-01-19T15:13:17.763Z,0.50
2019-01-19T15:16:34.336Z,0.40
2019-01-19T15:19:46.711Z,0.40
2019-01-19T15:22:42.705Z,0.40
2019-01-19T15:25:26.594Z,0.40
2019-01-19T15:28:37.207Z,0.40
2019-01-19T15:31:17.685Z,0.40
2019-01-19T15:34:25.432Z,0.40
2019-01-19T15:37:22.107Z,0.40
2019-01-19T15:40:24.907Z,0.40
2019-01-19T15:43:32.746Z,0.40
2019-01-19T15:46:46.826Z,0.40
2019-01-19T15:49:33.593Z,0.50
2019-01-19T15:52:23.179Z,0.50
2019-01-19T15:55:31.774Z,0.50
2019-01-19T15:58:29.542Z,0.50
2019-01-19T16:01:22.157Z,0.50
2019-01-19T16:04:16.297Z,0.50
2019-01-19T16:07:29.047Z,0.50
2019-01-19T16:10:41.633Z,0.50
2019-01-19T16:13:42.683Z,0.50
2019-01-19T16:16:41.745Z,0.50
2019-01-19T16:20:05.964Z,0.50
2019-01-19T16:23:20.802Z,0.60
2019-01-19T16:26:33.035Z,0.60
2019-01-19T16:29:26.599Z,0.60
2019-01-19T16:32:08.317Z,0.60
2019-01-19T16:34:57.434Z,0.60
2019-01-19T16:38:09.151Z,0.60
2019-01-19T16:41:07.490Z,0.60
2019-01-19T16:43:51.800Z,0.50
2019-01-19T16:47:06.366Z,0.50
2019-01-19T16:50:00.117Z,0.50
2019-01-19T16:53:01.839Z,0.50
2019-01-19T16:55:44.848Z,0.50
2019-01-19T16:58:36.634Z,0.50
2019-01-19T17:01:32.690Z,0.50
2019-01-19T17:04:23.998Z,0.50
2019-01-19T17:07:24.285Z,0.50
2019-01-19T17:10:18.674Z,0.50
2019-01-19T17:13:39.991Z,0.50
2019-01-19T17:17:01.378Z,0.50
2019-01-19T17:19:47.437Z,0.50
2019-01-19T17:22:22.374Z,0.50
2019-01-19T17:25:26.383Z,0.60
2019-01-19T17:28:35.860Z,0.50
2019-01-19T17:31:13.293Z,0.60
2019-01-19T17:34:25.492Z,0.60
2019-01-19T17:37:07.806Z,0.60
2019-01-19T17:40:05.371Z,0.60
2019-01-19T17:43:01.146Z,0.60
2019-01-19T17:45:57.111Z,0.60
2019-01-19T17:49:33.319Z,0.60
2019-01-19T17:52:28.237Z,0.70
2019-01-19T17:55:21.426Z,0.70
2019-01-19T17:58:38.274Z,0.70
2019-01-19T18:01:58.366Z,0.70
2019-01-19T18:04:52.822Z,0.70
2019-01-19T18:07:30.751Z,0.70
2019-01-19T18:10:46.251Z,0.70
2019-01-19T18:13:50.724Z,0.70
2019-01-19T18:16:50.774Z,0.70
2019-01-19T18:19:28.100Z,0.70
2019-01-19T18:22:25.485Z,0.80
2019-01-19T18:25:20.035Z,0.70
2019-01-19T18:28:02.733Z,0.70
2019-01-19T18:30:52.895Z,0.70
2019-01-19T18:33:48.529Z,0.70
2019-01-19T18:37:06.161Z,0.70
2019-01-19T18:40:23.911Z,0.70
2019-01-19T18:43:21.196Z,0.70
2019-01-19T18:46:33.634Z,0.80
2019-01-19T18:49:42.934Z,0.70
2019-01-19T18:52:42.669Z,0.70
2019-01-19T18:56:00.210Z,0.70
2019-01-19T18:58:51.846Z,0.70
2019-01-19T19:02:12.564Z,0.70
2019-01-19T19:05:23.517Z,0.70
2019-01-19T19:08:56.826Z,0.70
2019-01-19T19:11:52.085Z,0.70
2019-01-19T19:14:45.483Z,0.70
2019-01-19T19:18:02.302Z,0.70
2019-01-19T19:21:26.445Z,0.70
2019-01-19T19:24:33.993Z,0.70
2019-01-19T19:27:23.647Z,0.70
2019-01-19T19:30:29.356Z,0.70
2019-01-19T19:33:39.005Z,0.70
2019-01-19T19:36:47.123Z,0.70
2019-01-19T19:39:40.002Z,0.70
2019-01-19T19:43:00.977Z,0.80
2019-01-19T19:45:39.632Z,0.70
2019-01-19T19:48:40.515Z,0.80
2019-01-19T19:51:49.611Z,0.80
2019-01-19T19:54:16.662Z,0.80
2019-01-19T19:56:42.784Z,0.70
2019-01-19T19:59:09.808Z,0.80
2019-01-19T20:01:36.733Z,0.80
2019-01-19T20:04:03.718Z,0.80
2019-01-19T20:06:30.518Z,0.70
2019-01-19T20:08:57.345Z,0.80
2019-01-19T20:11:24.270Z,0.70
2019-01-19T20:13:51.080Z,0.80
2019-01-19T20:16:18.010Z,0.80
2019-01-19T20:18:44.789Z,0.80
2019-01-19T20:21:11.695Z,0.70
2019-01-19T20:23:38.543Z,0.80
2019-01-19T20:26:05.566Z,0.70
2019-01-19T20:28:32.389Z,0.70
2019-01-19T20:30:59.218Z,0.80
2019-01-19T20:33:26.113Z,0.80
2019-01-19T20:35:53.114Z,0.80
2019-01-19T20:38:20.042Z,0.70
2019-01-19T20:40:46.846Z,0.80
2019-01-19T20:43:13.747Z,0.70
2019-01-19T20:45:40.681Z,0.70
2019-01-19T20:48:07.686Z,0.80
2019-01-19T20:50:34.618Z,0.80
2019-01-19T20:53:01.670Z,0.80
2019-01-19T20:55:28.476Z,0.80
2019-01-19T20:57:55.404Z,0.80
2019-01-19T21:00:22.754Z,0.80
2019-01-19T21:02:49.562Z,0.80
2019-01-19T21:05:16.469Z,0.80
2019-01-19T21:07:43.541Z,0.80
2019-01-19T21:10:10.567Z,0.80
2019-01-19T21:12:37.574Z,0.80
2019-01-19T21:15:06.282Z,0.80
2019-01-19T21:17:33.082Z,0.80
2019-01-19T21:19:59.898Z,0.70
2019-01-19T21:22:26.986Z,0.70
2019-01-19T21:24:53.769Z,0.70
2019-01-19T21:27:20.574Z,0.70
2019-01-19T21:29:47.421Z,0.70
2019-01-19T21:32:14.325Z,0.60
2019-01-19T21:34:41.225Z,0.60
2019-01-19T21:37:08.283Z,0.60
2019-01-19T21:39:35.195Z,0.60
2019-01-19T21:42:02.290Z,0.50
2019-01-19T21:44:29.482Z,0.50
2019-01-19T21:46:56.517Z,0.50
2019-01-19T21:49:23.334Z,0.50
2019-01-19T21:51:50.283Z,0.50
2019-01-19T21:54:17.195Z,0.50
2019-01-19T21:56:44.041Z,0.50
2019-01-19T21:59:10.870Z,0.40
2019-01-19T22:01:37.783Z,0.50
2019-01-19T22:04:04.805Z,0.40
2019-01-19T22:06:31.747Z,0.40
2019-01-19T22:08:58.562Z,0.40
2019-01-19T22:11:25.467Z,0.40
2019-01-19T22:13:52.422Z,0.40
2019-01-19T22:16:19.346Z,0.40
2019-01-19T22:18:46.162Z,0.40
2019-01-19T22:21:13.201Z,0.40
2019-01-19T22:23:40.014Z,0.40
2019-01-19T22:26:08.910Z,0.40
2019-01-19T22:28:35.873Z,0.40
2019-01-19T22:31:02.791Z,0.40
2019-01-19T22:33:29.833Z,0.40
2019-01-19T22:35:56.694Z,0.40
2019-01-19T22:38:23.506Z,0.30
2019-01-19T22:40:53.793Z,0.30
2019-01-19T22:43:25.119Z,0.30
2019-01-19T22:45:51.941Z,0.30
2019-01-19T22:48:18.745Z,0.40
2019-01-19T22:50:45.750Z,0.30
2019-01-19T22:53:12.582Z,0.30
2019-01-19T22:55:39.499Z,0.30
2019-01-19T22:58:06.445Z,0.30
2019-01-19T23:00:58.334Z,0.20
2019-01-19T23:03:26.213Z,0.20
2019-01-19T23:05:53.101Z,0.20
2019-01-19T23:08:20.122Z,0.20
2019-01-19T23:10:47.078Z,0.20
2019-01-19T23:13:13.885Z,0.10
2019-01-19T23:15:40.771Z,0.20
2019-01-19T23:18:07.708Z,0.10
2019-01-19T23:20:34.511Z,0.10
2019-01-19T23:23:01.513Z,0.10
2019-01-19T23:25:28.523Z,0.10
2019-01-19T23:27:55.331Z,0.10
2019-01-19T23:30:22.236Z,0.10
2019-01-19T23:32:49.097Z,0.10
2019-01-19T23:35:16.112Z,0.10
2019-01-19T23:37:43.025Z,0.00
2019-01-19T23:40:10.215Z,0.10
2019-01-19T23:42:37.134Z,0.00
2019-01-19T23:45:04.681Z,0.00
2019-01-19T23:47:31.525Z,0.00
2019-01-19T23:49:58.561Z,0.00
2019-01-19T23:52:25.374Z,0.00
2019-01-19T23:54:52.214Z,-0.10
2019-01-19T23:57:18.994Z,0.00
2019-01-19T23:59:45.842Z,0.00
